createdAt,value
2019-03-09T00:00:28.659Z,89.47
2019-03-09T00:03:02.416Z,83.05
2019-03-09T00:05:35.607Z,93.78
2019-03-09T00:08:08.095Z,83.65
2019-03-09T00:10:40.652Z,79.58
2019-03-09T00:13:13.341Z,88.65
2019-03-09T00:15:45.992Z,85.07
2019-03-09T00:18:37.234Z,91.85
2019-03-09T00:21:10.372Z,89.65
2019-03-09T00:23:43.951Z,87.47
2019-03-09T00:26:18.155Z,84.45
2019-03-09T00:28:51.804Z,89.30
2019-03-09T00:31:25.555Z,87.70
2019-03-09T00:33:58.015Z,77.12
2019-03-09T00:36:30.955Z,81.50
2019-03-09T00:39:03.372Z,82.33
2019-03-09T00:41:37.471Z,78.10
2019-03-09T00:44:09.788Z,87.30
2019-03-09T00:46:42.542Z,83.07
2019-03-09T00:49:14.662Z,82.02
2019-03-09T00:51:47.592Z,77.60
2019-03-09T00:54:19.870Z,79.70
2019-03-09T00:56:52.589Z,80.55
2019-03-09T00:59:25.067Z,86.15
2019-03-09T01:01:57.903Z,88.22
2019-03-09T01:04:30.489Z,83.55
2019-03-09T01:07:15.809Z,85.15
2019-03-09T01:10:00.336Z,78.40
2019-03-09T01:12:33.181Z,84.97
2019-03-09T01:15:06.920Z,81.17
2019-03-09T01:17:40.297Z,81.72
2019-03-09T01:20:15.946Z,72.25
2019-03-09T01:22:48.381Z,131.12
2019-03-09T01:25:21.495Z,70.40
2019-03-09T01:27:53.961Z,81.82
2019-03-09T01:30:26.350Z,69.37
2019-03-09T01:32:59.153Z,65.08
2019-03-09T01:35:31.693Z,63.35
2019-03-09T01:38:04.444Z,60.33
2019-03-09T01:40:37.269Z,55.70
2019-03-09T01:43:09.592Z,59.95
2019-03-09T01:45:42.127Z,56.58
2019-03-09T01:48:14.491Z,52.75
2019-03-09T01:50:48.128Z,47.17
2019-03-09T01:53:20.773Z,55.40
2019-03-09T01:55:54.225Z,51.92
2019-03-09T01:58:26.620Z,47.58
2019-03-09T02:01:00.652Z,49.45
2019-03-09T02:03:34.605Z,52.00
2019-03-09T02:06:07.481Z,42.50
2019-03-09T02:08:40.327Z,45.15
2019-03-09T02:11:13.103Z,45.90
2019-03-09T02:13:45.853Z,45.50
2019-03-09T02:16:18.305Z,43.80
2019-03-09T02:18:50.972Z,49.73
2019-03-09T02:21:23.906Z,48.02
2019-03-09T02:23:56.581Z,43.75
2019-03-09T02:26:29.255Z,45.38
2019-03-09T02:29:02.000Z,42.23
2019-03-09T02:31:34.519Z,37.63
2019-03-09T02:34:07.038Z,39.40
2019-03-09T02:36:39.605Z,42.33
2019-03-09T02:39:14.397Z,38.38
2019-03-09T02:41:46.976Z,39.92
2019-03-09T02:44:19.490Z,37.60
2019-03-09T02:46:51.901Z,36.17
2019-03-09T02:49:24.182Z,38.83
2019-03-09T02:51:57.006Z,38.83
2019-03-09T02:54:29.611Z,41.20
2019-03-09T02:57:02.514Z,34.08
2019-03-09T02:59:34.949Z,36.90
2019-03-09T03:02:08.591Z,34.88
2019-03-09T03:04:41.310Z,37.35
2019-03-09T03:07:14.181Z,42.27
2019-03-09T03:09:46.757Z,36.03
2019-03-09T03:12:19.104Z,39.00
2019-03-09T03:14:51.773Z,32.35
2019-03-09T03:17:24.560Z,37.63
2019-03-09T03:19:57.227Z,34.45
2019-03-09T03:22:29.836Z,33.67
2019-03-09T03:25:02.291Z,30.82
2019-03-09T03:27:34.865Z,35.35
2019-03-09T03:30:09.228Z,28.62
2019-03-09T03:32:41.833Z,31.77
2019-03-09T03:35:14.343Z,30.10
2019-03-09T03:37:47.171Z,30.82
2019-03-09T03:40:19.757Z,32.48
2019-03-09T03:42:52.103Z,27.73
2019-03-09T03:45:24.572Z,31.17
2019-03-09T03:47:56.952Z,38.05
2019-03-09T03:50:32.200Z,33.23
2019-03-09T03:53:04.659Z,34.83
2019-03-09T03:55:36.873Z,31.82
2019-03-09T03:58:09.579Z,36.98
2019-03-09T04:00:42.169Z,39.53
2019-03-09T04:03:16.231Z,33.15
2019-03-09T04:05:48.697Z,38.75
2019-03-09T04:08:21.743Z,32.67
2019-03-09T04:10:54.777Z,39.48
2019-03-09T04:13:27.469Z,34.13
2019-03-09T04:16:00.252Z,37.05
2019-03-09T04:18:32.732Z,30.88
2019-03-09T04:21:05.431Z,28.95
2019-03-09T04:23:37.821Z,30.92
2019-03-09T04:26:10.418Z,33.78
2019-03-09T04:28:42.691Z,33.45
2019-03-09T04:31:15.256Z,30.30
2019-03-09T04:33:47.891Z,30.55
2019-03-09T04:36:20.068Z,30.65
2019-03-09T04:38:52.410Z,36.35
2019-03-09T04:41:25.069Z,35.30
2019-03-09T04:43:57.585Z,33.08
2019-03-09T04:46:30.162Z,39.23
2019-03-09T04:49:02.611Z,30.30
2019-03-09T04:51:35.193Z,35.35
2019-03-09T04:54:07.867Z,34.33
2019-03-09T04:56:40.406Z,33.70
2019-03-09T04:59:13.191Z,37.20
2019-03-09T05:01:45.675Z,36.48
2019-03-09T05:04:20.997Z,32.48
2019-03-09T05:06:53.417Z,30.55
2019-03-09T05:09:30.977Z,32.33
2019-03-09T05:12:15.997Z,33.58
2019-03-09T05:14:49.088Z,32.67
2019-03-09T05:17:21.641Z,33.23
2019-03-09T05:20:13.351Z,35.00
2019-03-09T05:22:46.200Z,33.67
2019-03-09T05:25:18.657Z,34.18
2019-03-09T05:27:51.285Z,31.95
2019-03-09T05:30:44.273Z,37.78
2019-03-09T05:33:17.037Z,31.07
2019-03-09T05:36:02.166Z,35.08
2019-03-09T05:38:35.411Z,35.30
2019-03-09T05:41:08.417Z,35.33
2019-03-09T05:43:43.135Z,34.95
2019-03-09T05:46:15.946Z,32.33
2019-03-09T05:48:48.592Z,35.73
2019-03-09T05:51:21.025Z,35.23
2019-03-09T05:53:54.654Z,32.48
2019-03-09T05:56:27.345Z,36.03
2019-03-09T05:58:59.773Z,31.80
2019-03-09T06:01:32.698Z,33.30
2019-03-09T06:04:05.622Z,31.95
2019-03-09T06:06:37.900Z,31.90
2019-03-09T06:09:10.608Z,31.68
2019-03-09T06:11:43.229Z,29.82
2019-03-09T06:14:15.700Z,37.15
2019-03-09T06:16:48.110Z,37.55
2019-03-09T06:19:20.966Z,35.33
2019-03-09T06:21:53.578Z,35.15
2019-03-09T06:24:26.545Z,33.10
2019-03-09T06:26:59.099Z,33.28
2019-03-09T06:29:31.890Z,32.75
2019-03-09T06:32:06.839Z,33.42
2019-03-09T06:34:39.414Z,30.68
2019-03-09T06:37:11.877Z,31.07
2019-03-09T06:39:44.354Z,34.53
2019-03-09T06:42:19.421Z,33.80
2019-03-09T06:44:51.999Z,33.25
2019-03-09T06:47:24.612Z,36.05
2019-03-09T06:49:58.349Z,28.83
2019-03-09T06:52:30.807Z,28.95
2019-03-09T06:55:03.745Z,32.33
2019-03-09T06:57:36.456Z,32.08
2019-03-09T07:00:11.209Z,37.73
2019-03-09T07:02:43.841Z,28.10
2019-03-09T07:05:16.075Z,28.83
2019-03-09T07:07:48.663Z,32.30
2019-03-09T07:10:20.866Z,34.53
2019-03-09T07:12:53.474Z,37.50
2019-03-09T07:15:27.946Z,33.88
2019-03-09T07:18:02.793Z,33.53
2019-03-09T07:20:35.069Z,35.50
2019-03-09T07:23:07.788Z,33.98
2019-03-09T08:31:20.268Z,35.65
2019-03-09T08:33:53.182Z,32.33
2019-03-09T08:36:27.325Z,31.70
2019-03-09T08:39:00.067Z,42.73
2019-03-09T08:41:34.195Z,25.72
2019-03-09T08:44:06.891Z,26.12
2019-03-09T08:46:39.492Z,32.33
2019-03-09T08:49:11.941Z,32.42
2019-03-09T08:51:44.436Z,32.42
2019-03-09T08:54:17.115Z,34.92
2019-03-09T08:56:50.022Z,33.78
2019-03-09T08:59:22.740Z,26.30
2019-03-09T09:01:55.122Z,28.87
2019-03-09T09:04:27.558Z,30.97
2019-03-09T09:06:59.844Z,32.98
2019-03-09T09:09:32.568Z,33.00
2019-03-09T09:12:05.057Z,31.55
2019-03-09T09:14:37.652Z,31.02
2019-03-09T09:17:10.526Z,28.52
2019-03-09T09:19:43.396Z,27.40
2019-03-09T09:22:15.655Z,27.87
2019-03-09T09:24:48.689Z,30.02
2019-03-09T09:27:21.008Z,31.35
2019-03-09T09:29:53.660Z,29.30
2019-03-09T09:32:25.943Z,28.02
2019-03-09T09:34:58.287Z,31.65
2019-03-09T09:37:30.603Z,29.25
2019-03-09T09:40:03.536Z,29.37
2019-03-09T09:42:36.064Z,34.63
2019-03-09T09:45:11.064Z,36.55
2019-03-09T09:47:44.094Z,28.62
2019-03-09T09:50:18.411Z,29.80
2019-03-09T09:52:51.574Z,32.75
2019-03-09T09:55:25.937Z,36.65
2019-03-09T09:57:58.475Z,33.55
2019-03-09T10:00:31.516Z,41.75
2019-03-09T10:03:03.973Z,33.40
2019-03-09T10:05:36.703Z,38.17
2019-03-09T10:08:09.119Z,37.80
2019-03-09T10:10:43.993Z,35.65
2019-03-09T10:13:16.074Z,43.68
2019-03-09T10:15:48.809Z,36.60
2019-03-09T10:18:21.180Z,40.05
2019-03-09T10:20:53.629Z,40.50
2019-03-09T10:23:26.037Z,34.88
2019-03-09T10:25:58.821Z,39.53
2019-03-09T10:28:32.291Z,37.53
2019-03-09T10:31:04.745Z,38.05
2019-03-09T10:33:37.278Z,35.95
2019-03-09T10:36:09.838Z,48.80
2019-03-09T10:38:42.475Z,32.17
2019-03-09T10:41:17.474Z,34.50
2019-03-09T10:43:50.058Z,41.63
2019-03-09T10:46:22.795Z,44.08
2019-03-09T10:48:55.405Z,48.83
2019-03-09T10:51:27.759Z,44.35
2019-03-09T10:54:00.392Z,45.08
2019-03-09T10:56:32.839Z,44.08
2019-03-09T10:59:05.642Z,46.13
2019-03-09T11:01:38.144Z,45.92
2019-03-09T11:04:10.851Z,41.58
2019-03-09T11:06:43.132Z,43.10
2019-03-09T11:09:16.074Z,49.13
2019-03-09T11:11:51.107Z,48.45
2019-03-09T11:14:23.774Z,49.48
2019-03-09T11:16:56.507Z,50.00
2019-03-09T11:19:29.135Z,44.75
2019-03-09T11:22:01.946Z,48.45
2019-03-09T11:24:34.456Z,38.92
2019-03-09T11:27:06.923Z,46.63
2019-03-09T11:29:39.364Z,42.73
2019-03-09T11:32:11.901Z,47.25
2019-03-09T11:34:44.310Z,45.35
2019-03-09T11:37:16.721Z,52.62
2019-03-09T11:39:49.286Z,52.08
2019-03-09T11:42:22.161Z,55.80
2019-03-09T11:44:54.875Z,65.12
2019-03-09T11:47:27.630Z,61.42
2019-03-09T11:50:00.357Z,54.33
2019-03-09T11:52:32.655Z,58.90
2019-03-09T11:55:05.969Z,60.10
2019-03-09T11:57:39.113Z,64.92
2019-03-09T12:00:14.964Z,65.75
2019-03-09T12:02:47.741Z,59.42
2019-03-09T12:05:20.765Z,64.22
2019-03-09T12:07:53.088Z,63.00
2019-03-09T12:10:25.908Z,63.40
2019-03-09T12:12:59.705Z,67.05
2019-03-09T12:15:32.223Z,68.07
2019-03-09T12:18:04.910Z,68.22
2019-03-09T12:20:38.431Z,70.50
2019-03-09T12:23:12.893Z,75.78
2019-03-09T12:25:45.383Z,80.10
2019-03-09T12:28:17.854Z,80.15
2019-03-09T12:30:50.326Z,81.25
2019-03-09T12:33:23.127Z,79.40
2019-03-09T12:35:55.646Z,85.75
2019-03-09T12:38:28.187Z,91.50
2019-03-09T12:41:00.682Z,82.75
2019-03-09T12:43:33.360Z,72.92
2019-03-09T12:46:06.000Z,67.15
2019-03-09T12:48:38.385Z,68.80
2019-03-09T12:51:10.877Z,67.37
2019-03-09T12:53:43.341Z,72.17
2019-03-09T12:56:15.613Z,74.10
2019-03-09T12:58:48.445Z,68.83
2019-03-09T13:01:22.174Z,76.02
2019-03-09T13:03:55.081Z,73.17
2019-03-09T13:06:27.814Z,77.08
2019-03-09T13:09:00.508Z,74.50
2019-03-09T13:11:34.117Z,77.42
2019-03-09T13:14:06.628Z,75.55
2019-03-09T13:16:39.087Z,78.97
2019-03-09T13:19:12.554Z,78.92
2019-03-09T13:21:45.043Z,84.50
2019-03-09T13:24:17.664Z,84.30
2019-03-09T13:26:50.086Z,77.00
2019-03-09T13:29:22.342Z,85.12
2019-03-09T13:31:54.688Z,83.15
2019-03-09T13:34:26.973Z,75.80
2019-03-09T13:36:59.675Z,77.60
2019-03-09T13:39:32.087Z,82.08
2019-03-09T13:42:04.726Z,81.53
2019-03-09T13:44:37.098Z,70.52
2019-03-09T13:47:09.588Z,73.30
2019-03-09T13:49:42.150Z,67.82
2019-03-09T13:52:14.439Z,73.97
2019-03-09T13:54:47.007Z,62.55
2019-03-09T13:57:19.480Z,65.20
2019-03-09T13:59:52.247Z,62.43
2019-03-09T14:02:24.793Z,64.40
2019-03-09T14:05:00.332Z,63.50
2019-03-09T14:07:33.168Z,60.12
2019-03-09T14:10:07.290Z,56.10
2019-03-09T14:12:39.801Z,62.13
2019-03-09T14:15:14.724Z,58.92
2019-03-09T14:17:47.316Z,57.67
2019-03-09T14:20:19.828Z,61.98
2019-03-09T14:22:52.630Z,60.88
2019-03-09T14:25:25.997Z,62.17
2019-03-09T14:27:59.129Z,57.30
2019-03-09T14:30:31.633Z,176.25
2019-03-09T14:33:04.158Z,58.10
2019-03-09T14:35:37.620Z,55.98
2019-03-09T14:38:10.036Z,59.85
2019-03-09T14:40:42.553Z,58.25
2019-03-09T14:43:14.843Z,51.35
2019-03-09T14:45:48.222Z,53.60
2019-03-09T14:48:21.083Z,50.33
2019-03-09T14:50:53.540Z,57.60
2019-03-09T14:53:25.799Z,67.60
2019-03-09T14:55:58.434Z,62.00
2019-03-09T14:58:31.055Z,54.60
2019-03-09T15:01:03.671Z,64.70
2019-03-09T15:03:36.308Z,64.30
2019-03-09T15:06:08.636Z,60.90
2019-03-09T15:08:53.950Z,93.85
2019-03-09T15:11:26.266Z,73.62
2019-03-09T15:13:58.658Z,73.90
2019-03-09T15:16:31.186Z,66.15
2019-03-09T15:19:03.593Z,67.08
2019-03-09T15:21:36.373Z,67.22
2019-03-09T15:24:11.263Z,67.00
2019-03-09T15:26:44.177Z,69.67
2019-03-09T15:29:16.841Z,73.83
2019-03-09T15:31:49.628Z,66.62
2019-03-09T15:34:22.643Z,72.05
2019-03-09T15:36:56.931Z,68.20
2019-03-09T15:39:29.363Z,63.68
2019-03-09T15:42:02.157Z,74.07
2019-03-09T15:44:34.588Z,72.37
2019-03-09T15:47:09.782Z,65.60
2019-03-09T15:49:42.178Z,71.20
2019-03-09T15:52:14.598Z,72.42
2019-03-09T15:54:47.078Z,76.12
2019-03-09T15:57:19.598Z,69.12
2019-03-09T15:59:52.509Z,69.00
2019-03-09T16:02:25.913Z,68.95
2019-03-09T16:04:58.328Z,66.97
2019-03-09T16:07:30.886Z,62.45
2019-03-09T16:10:03.238Z,65.32
2019-03-09T16:12:35.753Z,64.65
2019-03-09T16:15:09.252Z,63.33
2019-03-09T16:17:42.299Z,58.65
2019-03-09T16:20:17.129Z,61.63
2019-03-09T16:22:49.682Z,63.08
2019-03-09T16:25:22.277Z,59.75
2019-03-09T16:27:55.070Z,70.80
2019-03-09T16:30:28.422Z,59.95
2019-03-09T16:33:01.035Z,60.98
2019-03-09T16:35:33.840Z,56.75
2019-03-09T16:38:07.226Z,62.33
2019-03-09T16:40:40.920Z,55.40
2019-03-09T16:43:14.678Z,58.65
2019-03-09T16:45:47.309Z,57.40
2019-03-09T16:48:19.720Z,60.10
2019-03-09T16:50:52.125Z,58.35
2019-03-09T16:53:24.818Z,55.85
2019-03-09T16:55:57.409Z,51.75
2019-03-09T16:58:29.700Z,52.75
2019-03-09T17:01:02.434Z,55.30
2019-03-09T17:03:34.929Z,51.30
2019-03-09T17:06:07.546Z,54.65
2019-03-09T17:08:52.233Z,51.65
2019-03-09T17:11:25.302Z,51.65
2019-03-09T17:13:57.933Z,50.05
2019-03-09T17:16:30.329Z,53.10
2019-03-09T17:19:04.079Z,51.63
2019-03-09T17:21:36.378Z,52.98
2019-03-09T17:24:09.176Z,51.80
2019-03-09T17:26:41.758Z,52.65
2019-03-09T17:29:14.419Z,46.28
2019-03-09T17:31:47.783Z,49.80
2019-03-09T17:34:20.080Z,52.45
2019-03-09T17:36:52.452Z,49.95
2019-03-09T17:39:25.951Z,48.35
2019-03-09T17:41:58.236Z,54.33
2019-03-09T17:44:31.387Z,48.78
2019-03-09T17:47:03.773Z,50.58
2019-03-09T17:49:36.513Z,48.38
2019-03-09T17:52:08.800Z,52.23
2019-03-09T17:54:41.146Z,51.63
2019-03-09T17:57:13.509Z,47.67
2019-03-09T17:59:46.325Z,58.02
2019-03-09T18:02:18.725Z,49.60
2019-03-09T18:04:52.134Z,56.58
2019-03-09T18:07:24.985Z,51.18
2019-03-09T18:09:57.539Z,52.50
2019-03-09T18:12:29.863Z,53.63
2019-03-09T18:15:02.922Z,52.00
2019-03-09T18:17:35.293Z,58.95
2019-03-09T18:20:09.872Z,57.03
2019-03-09T18:22:42.423Z,56.37
2019-03-09T18:25:16.031Z,57.17
2019-03-09T18:27:48.414Z,57.08
2019-03-09T18:30:21.049Z,56.45
2019-03-09T18:32:53.938Z,57.00
2019-03-09T18:35:26.573Z,62.78
2019-03-09T18:37:59.170Z,55.28
2019-03-09T18:40:31.914Z,59.90
2019-03-09T18:43:04.632Z,60.80
2019-03-09T18:45:37.323Z,60.17
2019-03-09T18:48:10.651Z,63.48
2019-03-09T18:50:43.095Z,61.30
2019-03-09T18:53:15.394Z,59.95
2019-03-09T18:55:47.950Z,57.38
2019-03-09T18:58:20.469Z,59.00
2019-03-09T19:00:52.926Z,55.50
2019-03-09T19:03:25.294Z,57.25
2019-03-09T19:05:57.822Z,57.60
2019-03-09T19:08:30.459Z,60.10
2019-03-09T19:11:02.858Z,60.45
2019-03-09T19:13:35.416Z,63.95
2019-03-09T19:16:08.018Z,54.27
2019-03-09T19:18:40.944Z,54.05
2019-03-09T19:21:13.673Z,51.73
2019-03-09T19:23:46.679Z,54.80
2019-03-09T19:26:18.763Z,51.40
2019-03-09T19:28:51.337Z,57.65
2019-03-09T19:31:23.637Z,50.73
2019-03-09T19:33:56.086Z,49.20
2019-03-09T19:36:28.370Z,52.38
2019-03-09T19:39:00.892Z,50.20
2019-03-09T19:41:34.695Z,54.60
2019-03-09T19:44:07.488Z,54.63
2019-03-09T19:46:39.923Z,49.25
2019-03-09T19:49:13.212Z,54.83
2019-03-09T19:51:46.711Z,50.15
2019-03-09T19:54:19.385Z,49.98
2019-03-09T19:56:51.673Z,53.50
2019-03-09T19:59:24.391Z,47.70
2019-03-09T20:01:57.046Z,55.73
2019-03-09T20:04:29.866Z,53.85
2019-03-09T20:07:02.542Z,54.67
2019-03-09T20:09:35.485Z,51.80
2019-03-09T20:12:08.086Z,49.53
2019-03-09T20:14:40.483Z,53.73
2019-03-09T20:17:12.885Z,57.85
2019-03-09T20:19:45.155Z,55.52
2019-03-09T20:22:17.762Z,52.03
2019-03-09T20:24:50.477Z,60.25
2019-03-09T20:27:22.878Z,52.75
2019-03-09T20:29:55.438Z,51.45
2019-03-09T20:32:28.008Z,55.17
2019-03-09T20:35:00.715Z,53.92
2019-03-09T20:37:33.144Z,54.85
2019-03-09T20:40:06.666Z,55.90
2019-03-09T20:42:39.340Z,56.37
2019-03-09T20:45:14.724Z,56.50
2019-03-09T20:47:47.588Z,60.25
2019-03-09T20:50:21.869Z,63.42
2019-03-09T20:52:54.718Z,60.40
2019-03-09T20:57:57.697Z,57.55
2019-03-09T21:00:30.049Z,56.98
2019-03-09T21:03:02.697Z,57.93
2019-03-09T21:05:36.801Z,55.70
2019-03-09T21:08:09.197Z,58.90
2019-03-09T21:10:41.984Z,57.90
2019-03-09T21:13:14.646Z,63.08
2019-03-09T21:15:47.405Z,55.78
2019-03-09T21:18:20.236Z,61.18
2019-03-09T21:20:52.845Z,59.53
2019-03-09T21:23:25.225Z,61.05
2019-03-09T21:25:58.285Z,65.45
2019-03-09T21:28:30.748Z,61.40
2019-03-09T21:31:03.234Z,66.28
2019-03-09T21:33:35.717Z,61.25
2019-03-09T21:36:08.286Z,60.60
2019-03-09T21:38:40.811Z,56.33
2019-03-09T21:41:13.138Z,61.98
2019-03-09T21:43:45.559Z,63.00
2019-03-09T21:46:18.082Z,63.98
2019-03-09T21:48:50.824Z,63.60
2019-03-09T21:51:24.203Z,62.53
2019-03-09T21:53:57.613Z,64.42
2019-03-09T21:56:30.331Z,63.58
2019-03-09T21:59:02.638Z,68.25
2019-03-09T22:01:35.328Z,66.82
2019-03-09T22:04:07.701Z,61.95
2019-03-09T22:06:40.350Z,65.55
2019-03-09T22:09:12.899Z,68.42
2019-03-09T22:11:45.517Z,63.92
2019-03-09T22:14:17.717Z,62.35
2019-03-09T22:16:56.577Z,61.48
2019-03-09T22:19:23.962Z,63.98
2019-03-09T22:21:56.508Z,57.55
2019-03-09T22:24:29.271Z,62.00
2019-03-09T22:27:01.968Z,58.52
2019-03-09T22:29:34.622Z,61.48
2019-03-09T22:32:07.547Z,58.55
2019-03-09T22:34:40.485Z,58.08
2019-03-09T22:37:13.322Z,53.28
2019-03-09T22:39:45.981Z,60.10
2019-03-09T22:42:18.482Z,51.53
2019-03-09T22:44:51.331Z,60.15
2019-03-09T22:47:24.137Z,53.65
2019-03-09T22:49:56.967Z,49.08
2019-03-09T22:52:29.752Z,51.08
2019-03-09T22:55:02.663Z,55.05
2019-03-09T22:57:35.884Z,55.65
2019-03-09T23:00:10.630Z,52.15
2019-03-09T23:02:45.124Z,56.53
2019-03-09T23:05:17.930Z,56.98
2019-03-09T23:07:51.513Z,56.30
2019-03-09T23:10:26.111Z,53.70
2019-03-09T23:12:58.685Z,56.30
2019-03-09T23:15:32.757Z,56.37
2019-03-09T23:18:05.246Z,54.30
2019-03-09T23:20:37.960Z,52.85
2019-03-09T23:23:10.345Z,58.68
2019-03-09T23:25:42.911Z,54.63
2019-03-09T23:28:15.253Z,58.15
2019-03-09T23:30:47.862Z,62.20
2019-03-09T23:33:20.562Z,65.40
2019-03-09T23:35:53.048Z,60.40
2019-03-09T23:38:25.868Z,61.08
2019-03-09T23:40:58.265Z,56.95
2019-03-09T23:43:31.144Z,60.08
2019-03-09T23:46:03.732Z,64.42
2019-03-09T23:48:36.739Z,58.45
2019-03-09T23:51:09.128Z,58.98
2019-03-09T23:53:41.832Z,65.35
2019-03-09T23:56:14.150Z,62.25
2019-03-09T23:58:46.656Z,64.17
